Time;durP1;ratioP1;P1;durP2;ratioP2;P2;SDS_P1;SDS_P2;PMS_P1;PMS_P2;Temp;Humidity;BMP_temperature;BMP_pressure;BME280_temperature;BME280_humidity;BME280_pressure;Samples;Min_cycle;Max_cycle;Signal;HPM_P1;HPM_P2
2022/05/19 00:02:15;;;;;;;12.38;3.53;;;;;;;27.09;33.07;101305.06;4933067;29;20469;-56
2022/05/19 00:04:42;;;;;;;12.65;3.92;;;;;;;27.46;32.27;101304.00;4950305;29;20067;-56
2022/05/19 00:07:09;;;;;;;8.65;3.17;;;;;;;27.31;33.19;101290.56;4954054;28;20103;-55
2022/05/19 00:09:37;;;;;;;12.15;3.75;;;;;;;27.08;32.78;101284.19;4970481;28;20019;-55
2022/05/19 00:12:10;;;;;;;11.60;4.03;;;;;;;26.47;33.85;101288.91;4972674;28;20066;-55
2022/05/19 00:14:36;;;;;;;11.07;3.55;;;;;;;26.86;34.08;101290.38;4966366;28;20122;-52
2022/05/19 00:17:04;;;;;;;11.45;3.80;;;;;;;26.74;33.80;101287.31;4935240;28;20370;-54
2022/05/19 00:19:30;;;;;;;14.20;4.13;;;;;;;26.75;33.33;101284.25;4934632;28;20489;-53
2022/05/19 00:21:56;;;;;;;12.85;3.67;;;;;;;27.10;33.09;101287.47;4937733;28;20108;-54
2022/05/19 00:24:23;;;;;;;9.77;3.90;;;;;;;27.22;33.17;101287.75;4934712;29;20115;-54
2022/05/19 00:26:49;;;;;;;13.48;4.40;;;;;;;26.82;33.68;101289.38;4934115;28;20027;-53
2022/05/19 00:29:15;;;;;;;7.45;3.78;;;;;;;27.04;33.21;101297.72;4953713;28;20035;-54
2022/05/19 00:31:41;;;;;;;11.23;4.03;;;;;;;27.00;33.53;101293.13;4953086;28;20038;-54
2022/05/19 00:34:08;;;;;;;15.93;4.45;;;;;;;26.87;33.66;101285.69;4939951;28;20038;-54
2022/05/19 00:36:34;;;;;;;15.52;3.70;;;;;;;26.45;34.30;101288.41;4934223;29;20156;-54
2022/05/19 00:39:01;;;;;;;12.85;4.55;;;;;;;26.66;33.29;101293.53;4952026;29;20035;-55
2022/05/19 00:41:27;;;;;;;12.40;3.78;;;;;;;26.69;33.54;101296.47;4953042;28;20038;-54
2022/05/19 00:43:59;;;;;;;11.43;3.38;;;;;;;26.16;34.38;101287.78;4953115;28;20604;-54
2022/05/19 00:46:47;;;;;;;12.52;4.05;;;;;;;26.43;34.88;101290.66;4971898;28;20038;-54
2022/05/19 00:49:39;;;;;;;10.75;3.88;;;;;;;26.34;35.39;101278.69;4972687;28;20027;-54
2022/05/19 00:52:11;;;;;;;13.57;4.28;;;;;;;26.53;33.03;101282.19;4972583;28;20066;-54
2022/05/19 00:54:44;;;;;;;10.43;3.88;;;;;;;26.50;34.19;101276.53;4965361;28;20036;-55
2022/05/19 00:57:24;;;;;;;11.48;3.58;;;;;;;26.67;34.05;101275.94;4953277;28;20043;-55
2022/05/19 01:00:04;;;;;;;10.80;3.85;;;;;;;26.39;34.39;101283.28;4953502;28;20035;-54
2022/05/19 01:02:40;;;;;;;9.10;3.67;;;;;;;26.15;34.15;101280.66;4952531;28;20480;-51
2022/05/19 01:05:09;;;;;;;11.85;3.45;;;;;;;26.26;35.49;101285.69;4953427;28;20023;-54
2022/05/19 01:07:39;;;;;;;11.68;3.83;;;;;;;25.92;35.55;101282.41;4939089;28;20031;-55
2022/05/19 01:10:06;;;;;;;10.43;3.55;;;;;;;25.57;35.50;101267.28;4940738;28;20504;-54
2022/05/19 01:12:34;;;;;;;13.55;3.70;;;;;;;26.04;35.29;101274.50;4953205;28;20039;-54
2022/05/19 01:15:04;;;;;;;12.02;3.65;;;;;;;25.92;34.88;101268.69;4946802;28;20028;-54
2022/05/19 01:17:32;;;;;;;15.20;4.00;;;;;;;25.89;35.16;101261.88;4938010;28;20118;-54
2022/05/19 01:20:23;;;;;;;10.73;3.65;;;;;;;26.03;35.06;101261.91;4938034;28;20020;-54
2022/05/19 01:22:56;;;;;;;13.13;3.45;;;;;;;25.97;36.16;101246.66;4937508;28;20588;-56
2022/05/19 01:25:43;;;;;;;15.05;3.47;;;;;;;26.13;36.06;101253.53;4946999;29;20035;-56
2022/05/19 01:28:10;;;;;;;11.85;3.60;;;;;;;26.03;35.99;101256.44;4952464;28;20063;-55
2022/05/19 01:30:37;;;;;;;13.90;3.75;;;;;;;25.70;35.37;101256.38;4966554;28;20102;-55
2022/05/19 01:33:04;;;;;;;12.55;4.38;;;;;;;25.67;36.05;101261.66;4975815;28;20383;-55
2022/05/19 01:35:33;;;;;;;9.43;3.58;;;;;;;26.03;37.14;101264.66;4975963;28;20368;-55
2022/05/19 01:38:06;;;;;;;10.65;3.42;;;;;;;26.15;36.52;101266.94;4956735;28;20043;-55
2022/05/19 01:40:41;;;;;;;12.35;3.17;;;;;;;26.34;35.49;101264.97;4954581;28;20027;-55
2022/05/19 01:43:32;;;;;;;9.15;3.40;;;;;;;26.46;35.15;101259.03;4955115;29;20082;-55
2022/05/19 01:46:10;;;;;;;12.82;3.47;;;;;;;26.56;34.85;101259.66;4956261;28;20040;-55
2022/05/19 01:48:57;;;;;;;8.70;3.22;;;;;;;26.47;33.79;101260.63;4969630;28;20185;-55
2022/05/19 01:51:26;;;;;;;13.30;3.40;;;;;;;26.65;34.80;101259.78;4975691;28;20030;-55
2022/05/19 01:54:15;;;;;;;10.20;3.17;;;;;;;27.00;34.18;101258.22;4968011;28;20495;-55
2022/05/19 01:57:01;;;;;;;10.70;3.13;;;;;;;26.68;34.64;101256.41;4954767;29;20472;-55
2022/05/19 01:59:33;;;;;;;12.52;3.78;;;;;;;27.11;33.30;101250.63;4937256;29;20036;-55
2022/05/19 02:02:08;;;;;;;11.13;3.17;;;;;;;27.42;33.91;101261.75;4949785;29;20106;-55
2022/05/19 02:04:49;;;;;;;10.07;3.38;;;;;;;26.86;33.86;101271.16;4955271;28;20447;-55
2022/05/19 02:07:18;;;;;;;15.65;3.80;;;;;;;27.27;33.78;101273.09;4960624;28;20034;-55
2022/05/19 02:09:53;;;;;;;11.73;2.90;;;;;;;27.20;33.26;101272.69;4975625;28;20061;-55
2022/05/19 02:12:21;;;;;;;12.68;3.10;;;;;;;27.95;32.69;101268.53;4958806;28;20042;-58
2022/05/19 02:14:54;;;;;;;17.30;3.55;;;;;;;28.13;32.12;101268.31;4946880;28;20035;-55
2022/05/19 02:17:24;;;;;;;11.25;3.83;;;;;;;28.55;31.50;101276.38;4955875;28;20122;-55
2022/05/19 02:19:55;;;;;;;11.25;3.47;;;;;;;28.80;31.58;101272.91;4948119;28;20046;-56
2022/05/19 02:22:25;;;;;;;9.40;3.38;;;;;;;28.92;30.94;101280.56;4968270;28;20067;-56
2022/05/19 02:24:59;;;;;;;14.35;3.78;;;;;;;28.68;31.23;101287.28;4956178;28;20027;-55
2022/05/19 02:27:51;;;;;;;8.98;2.88;;;;;;;28.96;30.73;101283.53;4972276;28;20207;-56
2022/05/19 02:30:30;;;;;;;10.43;3.38;;;;;;;29.08;30.82;101281.78;4947128;28;20089;-56
2022/05/19 02:32:56;;;;;;;11.20;3.35;;;;;;;28.85;30.69;101285.72;4974743;28;20031;-56
2022/05/19 02:35:23;;;;;;;8.30;2.80;;;;;;;28.25;30.88;101280.69;4975009;28;20027;-56
2022/05/19 02:37:51;;;;;;;11.68;3.13;;;;;;;28.12;32.03;101282.41;4958188;28;20059;-56
2022/05/19 02:40:19;;;;;;;10.68;3.45;;;;;;;27.55;32.83;101279.34;4955543;28;20030;-56
2022/05/19 02:42:46;;;;;;;9.98;3.28;;;;;;;27.63;33.33;101279.41;4955645;28;20128;-56
2022/05/19 02:45:14;;;;;;;12.35;3.33;;;;;;;27.40;33.64;101291.50;4936356;29;20047;-56
2022/05/19 02:47:40;;;;;;;11.88;3.60;;;;;;;26.97;34.34;101288.25;4936087;29;20032;-56
2022/05/19 02:50:08;;;;;;;9.80;3.28;;;;;;;26.56;35.45;101294.53;4936079;29;20039;-55
2022/05/19 02:52:35;;;;;;;9.80;3.45;;;;;;;26.06;36.06;101288.75;4935998;29;20023;-55
2022/05/19 02:55:01;;;;;;;9.25;3.90;;;;;;;25.88;36.83;101308.81;4954383;29;20024;-56
2022/05/19 02:57:27;;;;;;;13.52;3.88;;;;;;;25.66;37.16;101295.66;4955296;28;20031;-56
2022/05/19 02:59:54;;;;;;;14.70;3.95;;;;;;;25.67;37.37;101291.81;4955189;28;20550;-56
2022/05/19 03:02:20;;;;;;;13.27;3.08;;;;;;;25.48;37.80;101287.13;4952223;28;20206;-55
2022/05/19 03:04:47;;;;;;;10.88;3.22;;;;;;;25.14;38.47;101289.22;4954895;28;20023;-55
2022/05/19 03:07:13;;;;;;;11.20;3.75;;;;;;;24.94;39.34;101285.59;4969607;28;20070;-55
2022/05/19 03:09:42;;;;;;;9.02;2.63;;;;;;;24.67;39.42;101288.09;4954494;28;20034;-55
2022/05/19 03:12:10;;;;;;;12.43;3.63;;;;;;;24.67;39.57;101299.03;4954726;28;20046;-55
2022/05/19 03:14:36;;;;;;;10.63;3.80;;;;;;;24.55;39.54;101290.41;4954831;28;20065;-58
2022/05/19 03:17:09;;;;;;;14.88;3.83;;;;;;;24.23;40.34;101297.22;4954678;28;20051;-55
2022/05/19 03:19:37;;;;;;;9.73;3.30;;;;;;;24.39;40.26;101297.94;4954998;28;20416;-55
2022/05/19 03:22:05;;;;;;;11.88;3.65;;;;;;;24.19;40.77;101302.44;4954875;28;20028;-55
2022/05/19 03:24:31;;;;;;;11.48;3.38;;;;;;;24.18;40.38;101291.78;4954798;28;20043;-55
2022/05/19 03:26:58;;;;;;;9.10;3.20;;;;;;;24.15;40.73;101292.34;4953133;29;20104;-55
2022/05/19 03:29:24;;;;;;;11.30;3.63;;;;;;;23.92;41.46;101297.44;4954812;28;20440;-55
2022/05/19 03:31:50;;;;;;;11.80;3.47;;;;;;;23.35;42.41;101301.59;4954369;28;20023;-55
2022/05/19 03:34:17;;;;;;;13.75;3.85;;;;;;;23.54;42.63;101306.41;4954385;28;20027;-56
2022/05/19 03:36:48;;;;;;;13.70;3.95;;;;;;;23.48;42.99;101304.78;4949959;28;20039;-55
2022/05/19 03:39:15;;;;;;;15.70;3.90;;;;;;;23.63;42.42;101311.03;4953379;28;20035;-55
2022/05/19 03:41:41;;;;;;;12.77;3.95;;;;;;;23.40;42.88;101317.94;4954277;28;20099;-55
2022/05/19 03:44:08;;;;;;;12.10;4.10;;;;;;;23.38;43.43;101303.75;4938089;29;20070;-58
2022/05/19 03:46:34;;;;;;;14.27;3.92;;;;;;;22.72;44.39;101316.78;4954619;28;20412;-55
2022/05/19 03:49:01;;;;;;;15.30;3.83;;;;;;;22.91;44.47;101310.47;4953934;28;20110;-55
2022/05/19 03:51:29;;;;;;;17.95;4.35;;;;;;;22.69;45.00;101323.59;4935697;28;20043;-55
2022/05/19 03:53:55;;;;;;;12.98;3.72;;;;;;;22.38;45.95;101328.28;4934225;29;20047;-56
2022/05/19 03:56:23;;;;;;;15.85;4.05;;;;;;;22.48;45.88;101325.53;4945918;28;20031;-56
2022/05/19 03:58:50;;;;;;;13.77;3.88;;;;;;;22.47;46.39;101326.63;4973459;28;20026;-55
2022/05/19 04:01:17;;;;;;;16.23;3.97;;;;;;;22.30;46.46;101321.44;4960008;28;20028;-55
2022/05/19 04:03:44;;;;;;;10.73;3.50;;;;;;;22.10;47.63;101329.63;4953509;28;20057;-55
2022/05/19 04:06:10;;;;;;;11.18;3.67;;;;;;;22.07;47.35;101332.84;4952490;28;20158;-56
2022/05/19 04:08:36;;;;;;;14.88;4.35;;;;;;;22.12;47.38;101325.53;4934599;29;20116;-56
2022/05/19 04:11:03;;;;;;;15.02;4.75;;;;;;;21.94;47.53;101345.09;4934381;29;20055;-56
2022/05/19 04:13:29;;;;;;;19.00;4.32;;;;;;;21.87;47.72;101345.34;4934978;29;20469;-56
2022/05/19 04:15:56;;;;;;;13.73;4.20;;;;;;;21.49;48.61;101353.97;4934433;29;20373;-56
2022/05/19 04:18:23;;;;;;;13.48;3.88;;;;;;;21.56;48.63;101351.81;4938783;29;20027;-56
2022/05/19 04:20:49;;;;;;;15.15;4.03;;;;;;;21.53;48.37;101344.16;4953442;28;20027;-56
2022/05/19 04:23:17;;;;;;;15.45;4.05;;;;;;;21.42;49.01;101358.81;4953912;28;20366;-55
2022/05/19 04:25:44;;;;;;;14.95;4.40;;;;;;;21.38;49.32;101357.69;4953476;28;20031;-56
2022/05/19 04:28:10;;;;;;;17.17;4.47;;;;;;;21.29;49.57;101358.22;4953608;28;20063;-59
2022/05/19 04:30:37;;;;;;;15.88;4.35;;;;;;;21.43;49.54;101365.91;4951335;28;20472;-55
2022/05/19 04:33:04;;;;;;;12.20;3.53;;;;;;;21.31;49.42;101358.75;4934259;28;20031;-55
2022/05/19 04:35:30;;;;;;;12.05;3.50;;;;;;;21.22;50.02;101365.78;4939999;29;20337;-56
2022/05/19 04:38:00;;;;;;;19.52;3.38;;;;;;;21.38;49.56;101363.16;4953433;28;20612;-56
2022/05/19 04:40:27;;;;;;;14.70;4.20;;;;;;;21.31;49.65;101369.66;4953389;28;20036;-56
2022/05/19 04:42:54;;;;;;;14.90;4.40;;;;;;;21.27;49.40;101375.88;4953157;28;20098;-56
2022/05/19 04:45:20;;;;;;;14.18;3.88;;;;;;;21.29;49.93;101381.88;4953202;28;20062;-55
2022/05/19 04:47:47;;;;;;;12.88;3.63;;;;;;;21.10;50.49;101384.22;4953551;28;20043;-55
2022/05/19 04:50:14;;;;;;;11.40;3.78;;;;;;;20.86;51.27;101393.84;4953899;28;20041;-57
2022/05/19 04:52:40;;;;;;;15.82;4.45;;;;;;;20.98;50.79;101389.03;4957108;28;20042;-56
2022/05/19 04:55:08;;;;;;;17.75;4.20;;;;;;;21.09;50.36;101393.47;4956996;28;20055;-55
2022/05/19 04:57:34;;;;;;;10.75;3.60;;;;;;;20.84;50.54;101399.56;4972159;28;20365;-55
2022/05/19 05:00:00;;;;;;;16.92;4.30;;;;;;;20.80;50.53;101399.25;4976544;28;20522;-55
2022/05/19 05:02:26;;;;;;;13.70;3.97;;;;;;;20.79;50.64;101397.63;4976065;28;20038;-56
2022/05/19 05:04:52;;;;;;;7.80;3.33;;;;;;;20.71;50.52;101402.72;4976222;28;20035;-55
2022/05/19 05:07:19;;;;;;;11.02;3.45;;;;;;;20.65;50.41;101409.19;4976261;28;20390;-55
2022/05/19 05:09:45;;;;;;;9.60;3.70;;;;;;;20.57;50.43;101405.06;4967527;28;20035;-55
2022/05/19 05:12:11;;;;;;;9.15;3.15;;;;;;;20.37;50.74;101407.53;4956828;28;20039;-55
2022/05/19 05:14:38;;;;;;;10.82;3.50;;;;;;;20.38;50.63;101412.75;4956846;28;20491;-55
2022/05/19 05:17:04;;;;;;;11.45;3.60;;;;;;;20.45;50.10;101412.53;4956776;28;20429;-55
2022/05/19 05:19:30;;;;;;;10.20;3.13;;;;;;;20.50;50.06;101416.16;4956610;28;20522;-55
2022/05/19 05:21:59;;;;;;;16.52;3.63;;;;;;;20.52;50.07;101416.69;4956404;28;20031;-56
2022/05/19 05:24:26;;;;;;;9.13;3.92;;;;;;;20.42;50.54;101415.75;4956798;28;20038;-56
2022/05/19 05:26:52;;;;;;;10.88;3.22;;;;;;;20.45;50.66;101415.25;4955833;28;20400;-55
2022/05/19 05:29:19;;;;;;;13.25;3.25;;;;;;;20.44;50.47;101413.63;4956338;28;20050;-55
2022/05/19 05:31:47;;;;;;;11.00;3.70;;;;;;;20.01;51.52;101399.84;4955787;28;20432;-55
2022/05/19 05:34:13;;;;;;;9.88;3.45;;;;;;;20.24;50.92;101400.63;4956715;28;20034;-56
2022/05/19 05:36:40;;;;;;;10.80;3.60;;;;;;;20.38;50.46;101414.66;4956642;28;20063;-55
2022/05/19 05:39:06;;;;;;;8.93;3.13;;;;;;;20.26;51.02;101422.94;4956441;28;20023;-56
2022/05/19 05:41:32;;;;;;;10.82;3.28;;;;;;;20.28;50.80;101410.75;4956001;28;20167;-55
2022/05/19 05:43:58;;;;;;;12.75;4.00;;;;;;;20.29;50.69;101417.81;4955345;28;20505;-55
2022/05/19 05:46:24;;;;;;;13.88;4.28;;;;;;;19.96;51.99;101413.38;4956325;28;20031;-56
2022/05/19 05:48:51;;;;;;;14.93;3.47;;;;;;;19.91;51.78;101421.47;4956376;28;20035;-55
2022/05/19 05:51:18;;;;;;;11.35;3.40;;;;;;;19.92;52.23;101412.25;4956235;28;20111;-55
2022/05/19 05:53:46;;;;;;;12.98;3.92;;;;;;;19.90;52.02;101408.97;4955870;28;20027;-55
2022/05/19 05:56:16;;;;;;;11.05;4.20;;;;;;;20.00;52.14;101411.00;4969607;28;20031;-56
2022/05/19 05:58:43;;;;;;;11.30;3.05;;;;;;;20.00;52.41;101416.44;4955899;29;20019;-55
2022/05/19 06:01:14;;;;;;;13.43;3.47;;;;;;;20.09;52.14;101419.50;4954777;28;20115;-56
2022/05/19 06:03:41;;;;;;;11.00;3.17;;;;;;;20.00;52.19;101414.53;4955791;28;20392;-56
2022/05/19 06:06:07;;;;;;;13.88;3.80;;;;;;;19.90;52.76;101425.28;4955557;28;20023;-55
2022/05/19 06:08:34;;;;;;;6.85;3.13;;;;;;;20.11;52.18;101420.06;4956091;28;20481;-55
2022/05/19 06:11:01;;;;;;;10.68;3.10;;;;;;;19.97;52.67;101427.78;4955570;28;20043;-56
2022/05/19 06:13:28;;;;;;;12.82;3.45;;;;;;;19.93;52.50;101426.66;4955677;28;20023;-55
2022/05/19 06:15:55;;;;;;;8.80;3.33;;;;;;;19.93;52.38;101429.38;4956073;28;20400;-55
2022/05/19 06:18:21;;;;;;;14.70;3.53;;;;;;;19.91;52.10;101431.53;4956163;28;20035;-56
2022/05/19 06:20:47;;;;;;;16.77;3.63;;;;;;;19.65;53.28;101428.47;4955693;28;20462;-56
2022/05/19 06:23:16;;;;;;;12.52;3.42;;;;;;;19.77;53.18;101421.06;4955593;28;20038;-55
2022/05/19 06:25:42;;;;;;;14.70;3.60;;;;;;;19.69;52.64;101426.91;4955490;28;20027;-55
2022/05/19 06:28:09;;;;;;;11.68;3.70;;;;;;;19.69;53.76;101428.81;4955287;28;20067;-55
2022/05/19 06:30:35;;;;;;;12.90;4.28;;;;;;;19.76;53.43;101422.09;4954947;28;20034;-55
2022/05/19 06:33:02;;;;;;;16.88;4.75;;;;;;;19.80;53.61;101427.88;4955570;28;20035;-55
2022/05/19 06:35:32;;;;;;;15.57;4.28;;;;;;;19.43;54.54;101428.47;4954838;28;20148;-56
2022/05/19 06:37:58;;;;;;;15.77;4.18;;;;;;;19.47;54.20;101436.91;4955124;28;20484;-56
2022/05/19 06:40:25;;;;;;;21.98;4.15;;;;;;;19.60;54.42;101433.88;4955194;28;20039;-56
2022/05/19 06:42:53;;;;;;;19.13;4.75;;;;;;;19.51;54.73;101411.72;4955014;28;20480;-56
2022/05/19 06:45:23;;;;;;;19.67;4.35;;;;;;;19.07;55.85;101416.25;4955022;28;20516;-56
2022/05/19 06:47:53;;;;;;;14.00;5.05;;;;;;;19.14;55.90;101432.38;4954778;28;20035;-56
2022/05/19 06:50:22;;;;;;;13.50;3.95;;;;;;;19.25;55.59;101421.41;4955249;28;20039;-56
2022/05/19 06:52:54;;;;;;;13.80;4.22;;;;;;;19.18;56.12;101426.19;4954939;28;20492;-56
2022/05/19 06:55:22;;;;;;;14.73;4.32;;;;;;;19.10;56.20;101407.63;4961370;28;20089;-56
2022/05/19 06:57:49;;;;;;;20.27;4.57;;;;;;;19.10;55.94;101421.19;4973796;28;20031;-56
2022/05/19 07:00:19;;;;;;;15.98;4.30;;;;;;;19.11;55.60;101422.84;4955274;28;20098;-56
2022/05/19 07:02:48;;;;;;;14.00;4.38;;;;;;;18.71;57.45;101429.28;4954735;28;20026;-56
2022/05/19 07:05:17;;;;;;;21.02;4.82;;;;;;;18.66;57.35;101428.34;4953749;29;20387;-56
2022/05/19 07:07:46;;;;;;;14.63;4.03;;;;;;;18.89;56.55;101416.53;4954311;28;20086;-56
2022/05/19 07:10:15;;;;;;;20.45;4.85;;;;;;;18.73;57.34;101418.16;4954174;29;20063;-56
2022/05/19 07:12:43;;;;;;;17.42;4.35;;;;;;;18.54;57.83;101422.94;4953741;28;20496;-56
2022/05/19 07:15:11;;;;;;;15.32;4.95;;;;;;;18.63;57.73;101424.19;4954802;28;20600;-56
2022/05/19 07:17:38;;;;;;;18.75;4.03;;;;;;;18.68;57.72;101424.31;4954553;28;20453;-56
2022/05/19 07:22:50;;;;;;;14.95;4.45;;;;;;;18.54;58.19;101414.81;4946106;28;20691;-56
2022/05/19 07:25:17;;;;;;;25.30;4.85;;;;;;;18.66;57.54;101418.31;4947306;28;20035;-56
2022/05/19 07:27:43;;;;;;;16.23;4.50;;;;;;;18.49;58.10;101420.19;4948397;28;20038;-56
2022/05/19 07:30:11;;;;;;;22.17;5.47;;;;;;;18.46;58.06;101420.66;4942466;28;20028;-55
2022/05/19 07:32:38;;;;;;;18.48;4.53;;;;;;;18.53;57.71;101420.50;4934864;29;20468;-56
2022/05/19 07:35:06;;;;;;;21.13;5.05;;;;;;;18.53;57.75;101421.31;4942654;28;20091;-56
2022/05/19 07:37:32;;;;;;;17.92;5.45;;;;;;;18.46;57.74;101423.38;4935054;29;20023;-55
2022/05/19 07:39:59;;;;;;;16.95;5.78;;;;;;;18.45;57.92;101419.00;4937858;29;20078;-56
2022/05/19 07:42:25;;;;;;;19.60;5.53;;;;;;;18.29;58.60;101417.09;4935803;28;20205;-56
2022/05/19 07:44:52;;;;;;;25.52;5.18;;;;;;;18.38;58.04;101419.19;4934611;29;20063;-56
2022/05/19 07:47:19;;;;;;;14.57;5.00;;;;;;;18.29;58.88;101409.78;4932444;28;20039;-56
2022/05/19 07:49:46;;;;;;;20.27;5.32;;;;;;;18.29;58.87;101414.38;4946381;28;20098;-55
2022/05/19 07:52:13;;;;;;;21.52;6.25;;;;;;;18.54;58.43;101406.69;4952980;28;20078;-56
2022/05/19 07:54:39;;;;;;;17.20;4.75;;;;;;;18.38;58.99;101412.94;4946791;28;20030;-56
2022/05/19 07:57:06;;;;;;;24.08;5.50;;;;;;;18.35;59.12;101408.81;4953735;28;20023;-56
2022/05/19 07:59:33;;;;;;;17.50;5.22;;;;;;;18.27;59.23;101403.78;4953724;28;20055;-56
2022/05/19 08:01:59;;;;;;;15.52;4.90;;;;;;;18.28;59.08;101407.31;4953744;28;20033;-56
2022/05/19 08:04:26;;;;;;;20.65;4.65;;;;;;;18.22;59.97;101405.59;4952570;28;20027;-56
2022/05/19 08:06:52;;;;;;;22.58;5.20;;;;;;;18.23;59.84;101404.53;4946931;29;20030;-56
2022/05/19 08:12:04;;;;;;;18.30;5.93;;;;;;;18.24;60.51;101406.16;4954160;29;20090;-56
2022/05/19 08:17:19;;;;;;;19.58;5.22;;;;;;;18.15;60.57;101411.94;4953872;29;20041;-56
2022/05/19 08:19:47;;;;;;;21.85;5.32;;;;;;;18.11;59.85;101418.94;4953797;28;20049;-56
2022/05/19 08:22:13;;;;;;;16.38;4.60;;;;;;;18.08;59.67;101405.88;4953355;28;20035;-56
2022/05/19 08:24:41;;;;;;;23.30;5.80;;;;;;;18.12;60.03;101403.50;4953778;28;20035;-55
2022/05/19 08:27:07;;;;;;;18.75;5.53;;;;;;;18.01;59.97;101407.91;4952371;28;20023;-56
2022/05/19 08:29:34;;;;;;;18.20;5.10;;;;;;;17.89;60.05;101407.94;4948350;28;20527;-56
2022/05/19 08:32:00;;;;;;;19.05;5.55;;;;;;;17.91;60.21;101407.72;4935715;28;20028;-56
2022/05/19 08:34:27;;;;;;;19.35;5.95;;;;;;;17.96;60.06;101407.00;4945370;28;20034;-56
2022/05/19 08:36:54;;;;;;;21.45;6.35;;;;;;;18.02;60.22;101403.31;4934238;29;20019;-56
2022/05/19 08:39:21;;;;;;;14.90;4.95;;;;;;;18.07;59.84;101404.22;4934133;29;20024;-55
2022/05/19 08:41:55;;;;;;;24.20;5.85;;;;;;;17.81;60.33;101399.38;4934143;29;20028;-55
2022/05/19 08:44:54;;;;;;;25.15;6.18;;;;;;;17.75;60.47;101400.34;4934134;29;20062;-55
2022/05/19 08:47:27;;;;;;;21.27;6.43;;;;;;;17.55;60.68;101400.72;4941268;28;20480;-56
2022/05/19 08:49:58;;;;;;;18.00;4.88;;;;;;;17.60;60.45;101396.25;4936467;29;20038;-55
2022/05/19 08:52:27;;;;;;;18.13;5.70;;;;;;;17.33;61.01;101397.81;4953671;28;20055;-57
2022/05/19 08:54:56;;;;;;;19.42;5.18;;;;;;;17.51;60.04;101394.97;4953293;28;20024;-56
2022/05/19 08:57:36;;;;;;;23.75;5.45;;;;;;;17.61;60.20;101408.72;4953482;28;20038;-56
2022/05/19 09:00:17;;;;;;;17.92;5.65;;;;;;;17.47;59.90;101393.78;4953182;28;20113;-56
2022/05/19 09:03:16;;;;;;;19.27;5.05;;;;;;;17.26;60.88;101389.81;4953254;28;20023;-55
2022/05/19 09:05:53;;;;;;;18.35;4.80;;;;;;;17.08;61.71;101392.66;4953223;28;20039;-55
2022/05/19 09:08:59;;;;;;;20.35;5.25;;;;;;;16.55;63.84;101375.44;4952868;28;20028;-55
2022/05/19 09:11:39;;;;;;;22.00;5.60;;;;;;;16.36;64.40;101379.25;4953117;28;20512;-55
2022/05/19 09:14:19;;;;;;;28.33;6.38;;;;;;;16.58;63.76;101388.47;4953057;28;20043;-55
2022/05/19 09:16:47;;;;;;;22.13;5.65;;;;;;;16.61;63.47;101379.91;4953308;28;20040;-55
2022/05/19 09:19:34;;;;;;;18.33;5.40;;;;;;;16.56;63.50;101377.06;4953196;28;20031;-55
2022/05/19 09:22:05;;;;;;;22.85;4.72;;;;;;;16.58;63.36;101374.94;4952510;28;20428;-55
2022/05/19 09:24:31;;;;;;;18.23;5.55;;;;;;;16.70;62.61;101377.66;4945642;28;20039;-55
2022/05/19 09:27:00;;;;;;;18.50;5.32;;;;;;;16.68;62.97;101366.28;4953006;28;20388;-55
2022/05/19 09:29:36;;;;;;;17.65;5.68;;;;;;;16.50;63.58;101375.31;4952870;28;20027;-55
2022/05/19 09:32:34;;;;;;;22.98;5.32;;;;;;;16.40;63.64;101369.63;4952829;28;20059;-55
2022/05/19 09:35:10;;;;;;;24.63;6.38;;;;;;;16.57;62.81;101372.47;4953268;28;20128;-55
2022/05/19 09:37:43;;;;;;;25.70;5.20;;;;;;;16.40;63.26;101364.22;4955229;28;20020;-55
2022/05/19 09:40:26;;;;;;;31.88;6.18;;;;;;;16.51;62.56;101359.91;4956138;28;20031;-55
2022/05/19 09:43:03;;;;;;;21.20;5.63;;;;;;;16.45;62.67;101363.53;4956367;28;20027;-55
2022/05/19 09:45:36;;;;;;;20.75;6.03;;;;;;;16.41;62.94;101354.25;4956110;28;20054;-56
2022/05/19 09:48:06;;;;;;;21.88;6.00;;;;;;;16.23;63.96;101365.94;4956013;28;20042;-55
2022/05/19 09:50:47;;;;;;;23.35;5.97;;;;;;;16.25;63.74;101363.84;4955826;28;20484;-56
2022/05/19 09:53:29;;;;;;;26.58;5.53;;;;;;;16.29;63.09;101356.91;4956364;28;20023;-55
2022/05/19 09:55:58;;;;;;;19.25;5.80;;;;;;;16.21;63.99;101359.94;4955900;28;20031;-56
2022/05/19 09:58:29;;;;;;;22.50;5.78;;;;;;;16.18;64.32;101358.53;4955844;28;20019;-56
2022/05/19 10:01:00;;;;;;;25.23;6.22;;;;;;;16.16;64.83;101357.09;4955702;28;20436;-55
2022/05/19 10:03:29;;;;;;;19.00;5.63;;;;;;;16.24;64.69;101359.50;4955974;28;20019;-55
2022/05/19 10:06:02;;;;;;;23.33;6.50;;;;;;;16.30;64.90;101348.56;4955762;28;20131;-55
2022/05/19 10:08:39;;;;;;;20.52;6.93;;;;;;;16.42;64.58;101351.31;4955954;28;20037;-55
2022/05/19 10:11:07;;;;;;;21.23;4.95;;;;;;;16.12;64.99;101364.03;4955613;28;20038;-55
2022/05/19 10:13:39;;;;;;;25.02;5.88;;;;;;;16.22;65.13;101367.84;4955737;28;20351;-55
2022/05/19 10:16:10;;;;;;;24.88;5.20;;;;;;;16.04;65.41;101366.00;4955849;28;20029;-55
2022/05/19 10:18:57;;;;;;;19.00;5.22;;;;;;;15.65;67.15;101367.34;4955921;28;20024;-55
2022/05/19 10:21:46;;;;;;;20.67;5.93;;;;;;;15.82;66.60;101364.84;4955319;28;20031;-55
2022/05/19 10:24:46;;;;;;;23.50;5.25;;;;;;;15.78;66.29;101361.78;4941633;28;20116;-55
2022/05/19 10:31:18;;;;;;;21.77;5.43;;;;;;;15.84;65.54;101368.16;4935760;29;20087;-55
2022/05/19 10:33:56;;;;;;;27.90;5.35;;;;;;;15.92;65.37;101362.44;4952011;28;20551;-55
2022/05/19 10:36:43;;;;;;;21.70;5.88;;;;;;;15.87;65.55;101358.75;4955421;28;20027;-55
2022/05/19 10:39:24;;;;;;;19.27;5.32;;;;;;;15.80;65.70;101359.69;4955252;29;20062;-55
2022/05/19 10:41:50;;;;;;;19.73;5.22;;;;;;;15.90;65.54;101359.13;4955120;28;20099;-56
2022/05/19 10:44:19;;;;;;;26.02;5.93;;;;;;;15.88;64.97;101361.25;4954992;28;20054;-55
2022/05/19 10:47:09;;;;;;;22.83;5.60;;;;;;;15.82;65.58;101351.34;4955247;28;20027;-55
2022/05/19 10:50:05;;;;;;;26.55;6.15;;;;;;;15.76;66.19;101354.97;4954176;28;20053;-55
2022/05/19 10:52:40;;;;;;;;;;;;;;;15.98;64.71;101347.19;4955627;28;20043;-55
2022/05/19 10:55:23;;;;;;;14.63;4.75;;;;;;;15.90;65.46;101345.66;4955089;28;19918;-55
2022/05/19 10:58:10;;;;;;;22.77;5.78;;;;;;;15.78;65.90;101347.47;4954896;28;20082;-55
2022/05/19 11:01:11;;;;;;;23.40;6.28;;;;;;;15.78;65.74;101342.09;4954894;28;20130;-55
2022/05/19 11:03:40;;;;;;;20.98;5.68;;;;;;;15.80;65.43;101348.88;4954738;28;20132;-55
2022/05/19 11:06:27;;;;;;;22.10;5.63;;;;;;;15.80;65.44;101340.78;4954793;28;20043;-55
2022/05/19 11:09:16;;;;;;;19.73;5.50;;;;;;;15.61;66.39;101344.56;4955150;28;20035;-55
2022/05/19 11:12:02;;;;;;;24.67;5.82;;;;;;;15.65;65.88;101343.06;4954603;28;20396;-55
2022/05/19 11:14:54;;;;;;;;;;;;;;;15.64;65.96;101337.88;4955554;28;20448;-55
2022/05/19 11:17:29;;;;;;;17.35;5.07;;;;;;;15.65;66.19;101337.66;4938861;28;19914;-55
2022/05/19 11:20:23;;;;;;;26.00;6.88;;;;;;;15.67;66.13;101337.44;4954441;28;20102;-55
2022/05/19 11:22:58;;;;;;;21.92;5.85;;;;;;;15.61;66.27;101339.16;4951903;28;20027;-55
2022/05/19 11:28:41;;;;;;;30.85;6.45;;;;;;;15.59;66.68;101338.53;4935271;29;19970;-55
2022/05/19 11:31:30;;;;;;;22.25;5.75;;;;;;;15.52;66.40;101341.31;4934727;29;20040;-56
2022/05/19 11:34:01;;;;;;;18.90;5.63;;;;;;;15.52;66.87;101333.22;4940846;28;20015;-55
2022/05/19 11:37:03;;;;;;;28.20;5.60;;;;;;;15.49;67.10;101346.34;4954363;28;20035;-55
2022/05/19 11:39:32;;;;;;;22.25;5.28;;;;;;;15.34;67.86;101335.94;4942537;28;20039;-55
2022/05/19 11:42:10;;;;;;;22.63;5.60;;;;;;;15.32;67.69;101338.03;4953701;28;20508;-55
2022/05/19 11:44:38;;;;;;;23.75;5.80;;;;;;;15.19;68.59;101346.28;4940260;28;20052;-55
2022/05/19 11:55:12;;;;;;;19.77;5.90;;;;;;;15.40;68.05;101343.13;4942551;28;20036;-55
2022/05/19 11:56:03;;;;;;;19.67;5.15;;;;;;;15.38;68.23;101347.09;4954149;28;20086;-55
2022/05/19 11:58:35;;;;;;;19.85;5.15;;;;;;;15.51;67.99;101333.47;4973479;28;20039;-55
2022/05/19 12:01:19;;;;;;;20.67;5.88;;;;;;;15.44;67.87;101340.81;4957299;28;20404;-56